Time,TemperatureF,DewpointF,PressureIn,WindDirection,WindDirectionDegrees,WindSpeedMPH,WindSpeedGustMPH,Humidity,HourlyPrecipIn,Conditions,Clouds,dailyrainin,SolarRadiationWatts/m^2,SoftwareType,DateUTC
2014-01-01 00:00:00,26.8,22.9,30.44,SE,133,0.0,0.0,85,0.00,CLR,CLR,0.00,0.0,WeatherDisplay:10.37,2014-01-01 05:00:00,
2014-01-01 00:05:00,26.8,23.2,30.44,SE,133,0.0,0.0,86,0.00,CLR,CLR,0.00,0.0,WeatherDisplay:10.37,2014-01-01 05:05:00,
2014-01-01 00:10:00,26.8,23.4,30.44,SE,133,0.0,0.0,87,0.00,CLR,CLR,0.00,0.0,WeatherDisplay:10.37,2014-01-01 05:10:00,
2014-01-01 00:15:00,26.8,23.2,30.43,SE,133,0.0,0.0,86,0.00,CLR,CLR,0.00,0.0,WeatherDisplay:10.37,2014-01-01 05:15:00,
2014-01-01 00:20:00,26.7,23.1,30.43,SE,133,0.0,0.0,86,0.00,CLR,CLR,0.00,0.0,WeatherDisplay:10.37,2014-01-01 05:20:00,
2014-01-01 00:25:00,26.6,23.0,30.43,SE,133,0.0,0.0,86,0.00,CLR,CLR,0.00,0.0,WeatherDisplay:10.37,2014-01-01 05:25:00,
2014-01-01 00:30:00,26.5,22.9,30.43,SE,133,0.0,0.0,86,0.00,CLR,CLR,0.00,0.0,WeatherDisplay:10.37,2014-01-01 05:30:00,
2014-01-01 00:45:00,26.4,22.8,30.43,SE,133,0.0,0.0,86,0.00,CLR,CLR,0.00,0.0,WeatherDisplay:10.37,2014-01-01 05:45:00,
2014-01-01 00:50:00,26.3,22.7,30.43,SE,133,0.0,0.0,86,0.00,CLR,CLR,0.00,0.0,WeatherDisplay:10.37,2014-01-01 05:50:00,
2014-01-01 00:55:00,26.4,22.8,30.43,SE,133,0.0,0.0,86,0.00,CLR,CLR,0.00,0.0,WeatherDisplay:10.37,2014-01-01 05:55:00,
2014-01-01 01:00:00,26.5,22.9,30.43,SE,133,0.0,1.0,86,0.00,CLR,CLR,0.00,0.0,WeatherDisplay:10.37,2014-01-01 06:00:00,
2014-01-01 01:05:00,26.5,22.9,30.43,SE,133,0.0,0.0,86,0.00,CLR,CLR,0.00,0.0,WeatherDisplay:10.37,2014-01-01 06:05:00,
2014-01-01 01:10:00,26.6,23.3,30.44,SE,133,0.0,0.0,87,0.00,CLR,CLR,0.00,0.0,WeatherDisplay:10.37,2014-01-01 06:10:00,
2014-01-01 01:15:00,26.6,23.3,30.44,SE,133,0.0,0.0,87,0.00,CLR,CLR,0.00,0.0,WeatherDisplay:10.37,2014-01-01 06:15:00,
2014-01-01 01:20:00,26.5,22.9,30.44,SE,133,0.0,0.0,86,0.00,CLR,CLR,0.00,0.0,WeatherDisplay:10.37,2014-01-01 06:20:00,
2014-01-01 01:25:00,26.5,23.1,30.44,SE,133,0.0,0.0,87,0.00,CLR,CLR,0.00,0.0,WeatherDisplay:10.37,2014-01-01 06:25:00,
2014-01-01 01:30:00,26.4,23.1,30.44,SE,133,0.0,0.0,87,0.00,CLR,CLR,0.00,0.0,WeatherDisplay:10.37,2014-01-01 06:30:00,
2014-01-01 01:35:00,26.3,23.0,30.44,SE,133,0.0,0.0,87,0.00,CLR,CLR,0.00,0.0,WeatherDisplay:10.37,2014-01-01 06:35:00,
2014-01-01 01:45:00,26.3,23.2,30.44,SE,133,0.0,0.0,88,0.00,CLR,CLR,0.00,0.0,WeatherDisplay:10.37,2014-01-01 06:45:00,
2014-01-01 01:50:00,26.3,23.2,30.44,SE,133,0.0,0.0,88,0.00,CLR,CLR,0.00,0.0,WeatherDisplay:10.37,2014-01-01 06:50:00,
2014-01-01 01:55:00,26.2,22.9,30.44,SE,133,0.0,0.0,87,0.00,CLR,CLR,0.00,0.0,WeatherDisplay:10.37,2014-01-01 06:55:00,
2014-01-01 02:00:00,26.2,23.1,30.45,SE,133,0.0,0.0,88,0.00,CLR,CLR,0.00,0.0,WeatherDisplay:10.37,2014-01-01 07:00:00,
2014-01-01 02:10:00,26.2,22.9,30.45,SE,133,0.0,0.0,87,0.00,CLR,CLR,0.00,0.0,WeatherDisplay:10.37,2014-01-01 07:10:00,
2014-01-01 02:15:00,26.2,22.9,30.45,SE,133,0.0,0.0,87,0.00,CLR,CLR,0.00,0.0,WeatherDisplay:10.37,2014-01-01 07:15:00,
2014-01-01 02:20:00,26.2,23.1,30.45,SE,133,0.0,0.0,88,0.00,CLR,CLR,0.00,0.0,WeatherDisplay:10.37,2014-01-01 07:20:00,
2014-01-01 02:25:00,26.3,23.2,30.45,SE,133,0.0,0.0,88,0.00,CLR,CLR,0.00,0.0,WeatherDisplay:10.37,2014-01-01 07:25:00,
2014-01-01 02:30:00,26.2,22.9,30.45,SE,133,0.0,0.0,87,0.00,CLR,CLR,0.00,0.0,WeatherDisplay:10.37,2014-01-01 07:30:00,
2014-01-01 02:35:00,26.3,23.2,30.45,SE,133,0.0,0.0,88,0.00,CLR,CLR,0.00,0.0,WeatherDisplay:10.37,2014-01-01 07:35:00,
2014-01-01 02:40:00,26.3,23.2,30.45,SE,133,0.0,0.0,88,0.00,CLR,CLR,0.00,0.0,WeatherDisplay:10.37,2014-01-01 07:40:00,
2014-01-01 02:50:00,26.3,23.2,30.45,SE,133,0.0,0.0,88,0.00,CLR,CLR,0.00,0.0,WeatherDisplay:10.37,2014-01-01 07:50:00,
2014-01-01 03:00:00,26.4,23.3,30.45,SE,133,0.0,0.0,88,0.00,CLR,CLR,0.00,0.0,WeatherDisplay:10.37,2014-01-01 08:00:00,
2014-01-01 03:05:00,26.4,23.3,30.44,SE,133,0.0,0.0,88,0.00,CLR,CLR,0.00,0.0,WeatherDisplay:10.37,2014-01-01 08:05:00,
2014-01-01 03:15:00,26.4,23.3,30.44,SE,133,0.0,0.0,88,0.00,CLR,CLR,0.00,0.0,WeatherDisplay:10.37,2014-01-01 08:15:00,
2014-01-01 03:20:00,26.5,23.4,30.44,SE,133,0.0,0.0,88,0.00,CLR,CLR,0.00,0.0,WeatherDisplay:10.37,2014-01-01 08:20:00,
2014-01-01 03:25:00,26.5,23.4,30.44,SE,133,0.0,0.0,88,0.00,CLR,CLR,0.00,0.0,WeatherDisplay:10.37,2014-01-01 08:25:00,
2014-01-01 03:30:00,26.6,23.5,30.44,SE,133,0.0,0.0,88,0.00,CLR,CLR,0.00,0.0,WeatherDisplay:10.37,2014-01-01 08:30:00,
2014-01-01 03:40:00,26.5,23.5,30.44,SE,133,0.0,0.0,88,0.00,CLR,CLR,0.00,0.0,WeatherDisplay:10.37,2014-01-01 08:40:00,
2014-01-01 03:45:00,26.5,23.4,30.44,SE,133,0.0,0.0,88,0.00,CLR,CLR,0.00,0.0,WeatherDisplay:10.37,2014-01-01 08:45:00,
2014-01-01 03:55:00,26.4,23.3,30.44,SE,133,0.0,0.0,88,0.00,CLR,CLR,0.00,0.0,WeatherDisplay:10.37,2014-01-01 08:55:00,
2014-01-01 04:00:00,26.4,23.1,30.44,SE,133,0.0,0.0,87,0.00,CLR,CLR,0.00,0.0,WeatherDisplay:10.37,2014-01-01 09:00:00,
2014-01-01 04:05:00,26.5,23.2,30.43,SE,133,0.0,0.0,87,0.00,CLR,CLR,0.00,0.0,WeatherDisplay:10.37,2014-01-01 09:05:00,
2014-01-01 04:10:00,26.4,23.3,30.43,SE,133,0.0,0.0,88,0.00,CLR,CLR,0.00,0.0,WeatherDisplay:10.37,2014-01-01 09:10:00,
2014-01-01 04:15:00,26.4,23.3,30.43,SE,133,0.0,0.0,88,0.00,CLR,CLR,0.00,0.0,WeatherDisplay:10.37,2014-01-01 09:15:00,
2014-01-01 04:20:00,26.3,23.2,30.43,SE,133,0.0,0.0,88,0.00,CLR,CLR,0.00,0.0,WeatherDisplay:10.37,2014-01-01 09:20:00,
2014-01-01 04:25:00,26.2,23.1,30.43,SE,133,0.0,0.0,88,0.00,CLR,CLR,0.00,0.0,WeatherDisplay:10.37,2014-01-01 09:25:00,
2014-01-01 04:30:00,26.2,22.9,30.42,SE,133,0.0,0.0,87,0.00,CLR,CLR,0.00,0.0,WeatherDisplay:10.37,2014-01-01 09:30:00,
2014-01-01 04:40:00,26.2,22.9,30.42,SE,133,0.0,0.0,87,0.00,CLR,CLR,0.00,0.0,WeatherDisplay:10.37,2014-01-01 09:40:00,
2014-01-01 04:45:00,26.1,22.8,30.42,SE,133,0.0,0.0,87,0.00,CLR,CLR,0.00,0.0,WeatherDisplay:10.37,2014-01-01 09:45:00,
2014-01-01 04:50:00,26.0,22.7,30.42,SE,133,0.0,0.0,87,0.00,CLR,CLR,0.00,0.0,WeatherDisplay:10.37,2014-01-01 09:50:00,
2014-01-01 05:00:00,26.0,22.7,30.42,SE,133,0.0,0.0,87,0.00,CLR,CLR,0.00,0.0,WeatherDisplay:10.37,2014-01-01 10:00:00,
2014-01-01 05:05:00,26.0,22.7,30.41,SE,133,0.0,0.0,87,0.00,CLR,CLR,0.00,0.0,WeatherDisplay:10.37,2014-01-01 10:05:00,
2014-01-01 05:10:00,26.0,22.9,30.42,SE,133,0.0,0.0,88,0.00,CLR,CLR,0.00,0.0,WeatherDisplay:10.37,2014-01-01 10:10:00,
2014-01-01 05:15:00,26.0,22.9,30.42,SE,133,0.0,0.0,88,0.00,CLR,CLR,0.00,0.0,WeatherDisplay:10.37,2014-01-01 10:15:00,
2014-01-01 05:20:00,25.9,22.8,30.42,SE,133,0.0,0.0,88,0.00,CLR,CLR,0.00,0.0,WeatherDisplay:10.37,2014-01-01 10:20:00,
2014-01-01 05:25:00,25.9,23.1,30.43,SE,133,0.0,0.0,89,0.00,CLR,CLR,0.00,0.0,WeatherDisplay:10.37,2014-01-01 10:25:00,
2014-01-01 05:30:00,25.8,23.0,30.43,SE,133,0.0,0.0,89,0.00,CLR,CLR,0.00,0.0,WeatherDisplay:10.37,2014-01-01 10:30:00,
2014-01-01 05:35:00,25.7,22.4,30.43,SE,133,0.0,0.0,87,0.00,CLR,CLR,0.00,0.0,WeatherDisplay:10.37,2014-01-01 10:35:00,
2014-01-01 05:40:00,25.7,22.6,30.43,SE,133,0.0,0.0,88,0.00,CLR,CLR,0.00,0.0,WeatherDisplay:10.37,2014-01-01 10:40:00,
2014-01-01 05:50:00,25.7,22.6,30.43,SE,133,0.0,0.0,88,0.00,CLR,CLR,0.00,0.0,WeatherDisplay:10.37,2014-01-01 10:50:00,
2014-01-01 05:55:00,25.6,22.5,30.43,SE,133,0.0,0.0,88,0.00,CLR,CLR,0.00,0.0,WeatherDisplay:10.37,2014-01-01 10:55:00,
2014-01-01 06:00:00,25.6,22.5,30.43,SE,133,0.0,0.0,88,0.00,CLR,CLR,0.00,0.0,WeatherDisplay:10.37,2014-01-01 11:00:00,
2014-01-01 06:10:00,25.6,22.5,30.42,SE,133,0.0,0.0,88,0.00,CLR,CLR,0.00,0.0,WeatherDisplay:10.37,2014-01-01 11:10:00,
2014-01-01 06:20:00,25.5,22.7,30.43,SE,133,0.0,0.0,89,0.00,CLR,CLR,0.00,0.0,WeatherDisplay:10.37,2014-01-01 11:20:00,
2014-01-01 06:30:00,25.3,22.5,30.43,SE,133,0.0,1.0,89,0.00,CLR,CLR,0.00,0.0,WeatherDisplay:10.37,2014-01-01 11:30:00,
2014-01-01 06:35:00,25.2,22.4,30.43,SE,133,0.0,0.0,89,0.00,CLR,CLR,0.00,0.0,WeatherDisplay:10.37,2014-01-01 11:35:00,
2014-01-01 06:40:00,25.2,22.4,30.43,SE,133,0.0,0.0,89,0.00,CLR,CLR,0.00,0.0,WeatherDisplay:10.37,2014-01-01 11:40:00,
2014-01-01 06:50:00,25.1,22.3,30.43,SE,133,0.0,0.0,89,0.00,CLR,CLR,0.00,0.0,WeatherDisplay:10.37,2014-01-01 11:50:00,
2014-01-01 07:00:00,25.0,22.2,30.43,SE,133,0.0,0.0,89,0.00,CLR,CLR,0.00,0.0,WeatherDisplay:10.37,2014-01-01 12:00:00,
2014-01-01 07:05:00,24.9,22.1,30.43,SE,133,0.0,0.0,89,0.00,CLR,CLR,0.00,0.0,WeatherDisplay:10.37,2014-01-01 12:05:00,
2014-01-01 07:10:00,24.9,22.1,30.43,SE,133,0.0,0.0,89,0.00,OVC,OVC,0.00,0.0,WeatherDisplay:10.37,2014-01-01 12:10:00,
2014-01-01 07:20:00,24.8,22.0,30.43,SE,133,0.0,0.0,89,0.00,OVC,OVC,0.00,0.0,WeatherDisplay:10.37,2014-01-01 12:20:00,
2014-01-01 07:30:00,24.7,21.7,30.44,SE,133,0.0,0.0,88,0.00,OVC,OVC,0.00,0.0,WeatherDisplay:10.37,2014-01-01 12:30:00,
2014-01-01 07:40:00,24.7,21.6,30.44,SE,133,0.0,0.0,88,0.00,OVC,OVC,0.00,0.0,WeatherDisplay:10.37,2014-01-01 12:40:00,
2014-01-01 07:45:00,24.7,21.6,30.44,SE,133,0.0,0.0,88,0.00,OVC,OVC,0.00,0.0,WeatherDisplay:10.37,2014-01-01 12:45:00,
2014-01-01 07:55:00,24.9,22.1,30.44,SE,133,0.0,0.0,89,0.00,OVC,OVC,0.00,11.0,WeatherDisplay:10.37,2014-01-01 12:55:00,
2014-01-01 08:05:00,24.9,22.1,30.44,SE,133,0.0,0.0,89,0.00,BKN,BKN,0.00,23.0,WeatherDisplay:10.37,2014-01-01 13:05:00,
2014-01-01 08:15:00,25.0,22.2,30.44,SE,133,0.0,0.0,89,0.00,BKN,BKN,0.00,30.0,WeatherDisplay:10.37,2014-01-01 13:15:00,
2014-01-01 08:20:00,25.1,22.3,30.45,SE,133,0.0,0.0,89,0.00,BKN,BKN,0.00,39.0,WeatherDisplay:10.37,2014-01-01 13:20:00,
2014-01-01 08:25:00,25.1,22.3,30.45,SE,133,0.0,0.0,89,0.00,SCT,SCT,0.00,54.0,WeatherDisplay:10.37,2014-01-01 13:25:00,
2014-01-01 08:30:00,25.3,22.8,30.45,SE,133,0.0,0.0,90,0.00,SCT,SCT,0.00,65.0,WeatherDisplay:10.37,2014-01-01 13:30:00,
2014-01-01 08:35:00,25.4,22.9,30.45,SE,133,0.0,0.0,90,0.00,SCT,SCT,0.00,69.0,WeatherDisplay:10.37,2014-01-01 13:35:00,
2014-01-01 08:40:00,25.6,23.1,30.45,SE,133,0.0,0.0,90,0.00,SCT,SCT,0.00,76.0,WeatherDisplay:10.37,2014-01-01 13:40:00,
2014-01-01 08:45:00,25.8,23.0,30.45,SE,133,0.0,0.0,89,0.00,SCT,SCT,0.00,90.0,WeatherDisplay:10.37,2014-01-01 13:45:00,
2014-01-01 08:50:00,26.0,23.2,30.45,SE,133,0.0,0.0,89,0.00,FEW,FEW,0.00,144.0,WeatherDisplay:10.37,2014-01-01 13:50:00,
2014-01-01 08:55:00,26.4,23.6,30.45,SE,133,0.0,0.0,89,0.00,CLR,CLR,0.00,160.0,WeatherDisplay:10.37,2014-01-01 13:55:00,
2014-01-01 09:00:00,27.2,24.4,30.45,SE,133,0.0,0.0,89,0.00,CLR,CLR,0.00,220.0,WeatherDisplay:10.37,2014-01-01 14:00:00,
2014-01-01 09:05:00,28.4,25.3,30.45,SE,133,0.0,0.0,88,0.00,CLR,CLR,0.00,214.0,WeatherDisplay:10.37,2014-01-01 14:05:00,
2014-01-01 09:10:00,29.6,25.6,30.44,SE,133,0.0,0.0,85,0.00,CLR,CLR,0.00,216.0,WeatherDisplay:10.37,2014-01-01 14:10:00,
2014-01-01 09:20:00,29.9,24.8,30.45,SE,133,0.0,0.0,81,0.00,CLR,CLR,0.00,290.0,WeatherDisplay:10.37,2014-01-01 14:20:00,
2014-01-01 09:25:00,30.3,25.2,30.46,SE,133,0.0,0.0,81,0.00,CLR,CLR,0.00,227.0,WeatherDisplay:10.37,2014-01-01 14:25:00,
2014-01-01 09:30:00,30.9,25.2,30.46,SE,133,0.0,0.0,79,0.00,SCT,SCT,0.00,142.0,WeatherDisplay:10.37,2014-01-01 14:30:00,
2014-01-01 09:35:00,31.4,26.0,30.46,SE,133,0.0,0.0,80,0.00,SCT,SCT,0.00,151.0,WeatherDisplay:10.37,2014-01-01 14:35:00,
2014-01-01 09:45:00,32.7,26.3,30.46,SE,136,0.0,0.0,77,0.00,SCT,SCT,0.00,178.0,WeatherDisplay:10.37,2014-01-01 14:45:00,
2014-01-01 09:55:00,34.8,24.9,30.46,SW,214,1.0,4.0,67,0.00,SCT,SCT,0.00,199.0,WeatherDisplay:10.37,2014-01-01 14:55:00,
2014-01-01 10:05:00,36.0,25.4,30.45,SSW,203,0.0,2.0,65,0.00,SCT,SCT,0.00,221.0,WeatherDisplay:10.37,2014-01-01 15:05:00,
2014-01-01 10:10:00,36.2,25.6,30.45,SW,222,0.0,4.0,65,0.00,SCT,SCT,0.00,253.0,WeatherDisplay:10.37,2014-01-01 15:10:00,
2014-01-01 10:20:00,36.6,25.6,30.46,SW,220,0.0,3.0,64,0.00,BKN,BKN,0.00,178.0,WeatherDisplay:10.37,2014-01-01 15:20:00,
2014-01-01 10:30:00,37.0,26.0,30.45,SW,223,0.0,4.0,64,0.00,SCT,SCT,0.00,258.0,WeatherDisplay:10.37,2014-01-01 15:30:00,
2014-01-01 10:35:00,37.3,25.1,30.45,WSW,246,1.0,5.0,61,0.00,CLR,CLR,0.00,394.0,WeatherDisplay:10.37,2014-01-01 15:35:00,
2014-01-01 10:45:00,37.6,25.8,30.45,SW,223,1.0,7.0,62,0.00,BKN,BKN,0.00,223.0,WeatherDisplay:10.37,2014-01-01 15:45:00,
2014-01-01 10:50:00,37.6,25.4,30.45,SW,236,1.0,7.0,61,0.00,SCT,SCT,0.00,269.0,WeatherDisplay:10.37,2014-01-01 15:50:00,
2014-01-01 10:55:00,37.9,25.6,30.44,WSW,244,1.0,5.0,61,0.00,SCT,SCT,0.00,311.0,WeatherDisplay:10.37,2014-01-01 15:55:00,
2014-01-01 11:05:00,38.2,25.5,30.44,SSW,209,1.0,4.0,60,0.00,BKN,BKN,0.00,225.0,WeatherDisplay:10.37,2014-01-01 16:05:00,
2014-01-01 11:15:00,38.7,26.0,30.44,SSW,193,1.0,5.0,60,0.00,SCT,SCT,0.00,350.0,WeatherDisplay:10.37,2014-01-01 16:15:00,
2014-01-01 11:20:00,38.7,25.6,30.44,SW,229,0.0,6.0,59,0.00,SCT,SCT,0.00,272.0,WeatherDisplay:10.37,2014-01-01 16:20:00,
2014-01-01 11:30:00,39.0,26.3,30.44,South,177,1.0,7.0,60,0.00,FEW,FEW,0.00,371.0,WeatherDisplay:10.37,2014-01-01 16:30:00,
2014-01-01 11:40:00,39.3,26.2,30.43,SW,230,0.0,9.0,59,0.00,SCT,SCT,0.00,276.0,WeatherDisplay:10.37,2014-01-01 16:40:00,
2014-01-01 11:45:00,39.1,25.6,30.43,WSW,240,2.0,9.0,58,0.00,BKN,BKN,0.00,255.0,WeatherDisplay:10.37,2014-01-01 16:45:00,
2014-01-01 11:50:00,39.2,26.5,30.42,WSW,239,2.0,5.0,60,0.00,BKN,BKN,0.00,253.0,WeatherDisplay:10.37,2014-01-01 16:50:00,
2014-01-01 11:55:00,39.3,26.2,30.42,WSW,245,3.0,6.0,59,0.00,BKN,BKN,0.00,234.0,WeatherDisplay:10.37,2014-01-01 16:55:00,
2014-01-01 12:00:00,39.2,25.6,30.42,WSW,244,5.0,10.0,58,0.00,BKN,BKN,0.00,257.0,WeatherDisplay:10.37,2014-01-01 17:00:00,
2014-01-01 12:05:00,39.2,25.7,30.41,WSW,240,1.0,7.0,58,0.00,BKN,BKN,0.00,267.0,WeatherDisplay:10.37,2014-01-01 17:05:00,
2014-01-01 12:10:00,39.5,26.7,30.40,SW,236,0.0,3.0,60,0.00,BKN,BKN,0.00,253.0,WeatherDisplay:10.37,2014-01-01 17:10:00,
2014-01-01 12:15:00,39.7,26.5,30.40,SW,225,0.0,1.0,59,0.00,BKN,BKN,0.00,267.0,WeatherDisplay:10.37,2014-01-01 17:15:00,
2014-01-01 12:25:00,39.9,26.3,30.39,South,186,0.0,4.0,58,0.00,BKN,BKN,0.00,271.0,WeatherDisplay:10.37,2014-01-01 17:25:00,
2014-01-01 12:30:00,40.0,26.4,30.39,SSE,161,1.0,7.0,58,0.00,SCT,SCT,0.00,392.0,WeatherDisplay:10.37,2014-01-01 17:30:00,
2014-01-01 12:40:00,40.3,26.3,30.38,South,190,0.0,5.0,57,0.00,SCT,SCT,0.00,322.0,WeatherDisplay:10.37,2014-01-01 17:40:00,
2014-01-01 12:45:00,40.5,26.0,30.39,South,172,5.0,8.0,56,0.00,BKN,BKN,0.00,267.0,WeatherDisplay:10.37,2014-01-01 17:45:00,
2014-01-01 12:55:00,40.1,26.5,30.38,SSW,198,1.0,6.0,58,0.00,BKN,BKN,0.00,269.0,WeatherDisplay:10.37,2014-01-01 17:55:00,
2014-01-01 13:05:00,40.1,26.5,30.37,WSW,241,1.0,8.0,58,0.00,SCT,SCT,0.00,323.0,WeatherDisplay:10.37,2014-01-01 18:05:00,
2014-01-01 13:10:00,40.3,26.2,30.37,SW,232,1.0,5.0,57,0.00,SCT,SCT,0.00,311.0,WeatherDisplay:10.37,2014-01-01 18:10:00,
2014-01-01 13:15:00,40.5,26.4,30.38,SW,222,1.0,5.0,57,0.00,SCT,SCT,0.00,346.0,WeatherDisplay:10.37,2014-01-01 18:15:00,
2014-01-01 13:20:00,40.7,26.6,30.37,SW,228,0.0,6.0,57,0.00,SCT,SCT,0.00,308.0,WeatherDisplay:10.37,2014-01-01 18:20:00,
2014-01-01 13:30:00,40.9,26.4,30.37,SSE,164,3.0,9.0,56,0.00,SCT,SCT,0.00,283.0,WeatherDisplay:10.37,2014-01-01 18:30:00,
2014-01-01 13:35:00,40.9,26.4,30.36,South,190,2.0,6.0,56,0.00,SCT,SCT,0.00,325.0,WeatherDisplay:10.37,2014-01-01 18:35:00,
2014-01-01 13:40:00,41.0,26.5,30.35,South,189,2.0,5.0,56,0.00,SCT,SCT,0.00,309.0,WeatherDisplay:10.37,2014-01-01 18:40:00,
2014-01-01 13:45:00,40.9,26.4,30.35,SSW,202,2.0,6.0,56,0.00,SCT,SCT,0.00,292.0,WeatherDisplay:10.37,2014-01-01 18:45:00,
2014-01-01 13:50:00,41.0,26.1,30.36,South,188,3.0,9.0,55,0.00,FEW,FEW,0.00,397.0,WeatherDisplay:10.37,2014-01-01 18:50:00,
2014-01-01 13:55:00,41.3,26.8,30.35,SSW,193,3.0,5.0,56,0.00,SCT,SCT,0.00,288.0,WeatherDisplay:10.37,2014-01-01 18:55:00,
2014-01-01 14:00:00,41.1,26.6,30.35,SW,230,7.0,12.0,56,0.00,BKN,BKN,0.00,246.0,WeatherDisplay:10.37,2014-01-01 19:00:00,
2014-01-01 14:05:00,40.8,26.3,30.34,SW,233,1.0,9.0,56,0.00,SCT,SCT,0.00,250.0,WeatherDisplay:10.37,2014-01-01 19:05:00,
2014-01-01 14:10:00,40.8,26.3,30.34,WSW,244,1.0,5.0,56,0.00,SCT,SCT,0.00,313.0,WeatherDisplay:10.37,2014-01-01 19:10:00,
2014-01-01 14:20:00,41.2,26.7,30.34,SSW,203,0.0,4.0,56,0.00,SCT,SCT,0.00,255.0,WeatherDisplay:10.37,2014-01-01 19:20:00,
2014-01-01 14:25:00,41.4,27.3,30.34,ESE,108,0.0,4.0,57,0.00,FEW,FEW,0.00,357.0,WeatherDisplay:10.37,2014-01-01 19:25:00,
2014-01-01 14:30:00,41.6,27.1,30.33,East,89,2.0,4.0,56,0.00,FEW,FEW,0.00,360.0,WeatherDisplay:10.37,2014-01-01 19:30:00,
2014-01-01 14:40:00,42.1,27.1,30.33,South,191,0.0,7.0,55,0.00,SCT,SCT,0.00,292.0,WeatherDisplay:10.37,2014-01-01 19:40:00,
2014-01-01 14:45:00,42.0,27.0,30.33,South,190,1.0,5.0,55,0.00,SCT,SCT,0.00,288.0,WeatherDisplay:10.37,2014-01-01 19:45:00,
2014-01-01 14:50:00,42.2,27.2,30.33,South,190,3.0,6.0,55,0.00,FEW,FEW,0.00,329.0,WeatherDisplay:10.37,2014-01-01 19:50:00,
2014-01-01 14:55:00,42.4,27.4,30.33,South,182,0.0,5.0,55,0.00,SCT,SCT,0.00,236.0,WeatherDisplay:10.37,2014-01-01 19:55:00,
2014-01-01 15:00:00,42.4,27.8,30.32,South,190,0.0,5.0,56,0.00,SCT,SCT,0.00,200.0,WeatherDisplay:10.37,2014-01-01 20:00:00,
2014-01-01 15:10:00,41.9,27.8,30.32,ESE,118,1.0,4.0,57,0.00,SCT,SCT,0.00,218.0,WeatherDisplay:10.37,2014-01-01 20:10:00,
2014-01-01 15:15:00,41.8,27.7,30.32,SSE,149,0.0,4.0,57,0.00,SCT,SCT,0.00,200.0,WeatherDisplay:10.37,2014-01-01 20:15:00,
2014-01-01 15:20:00,41.9,28.2,30.32,SSE,161,0.0,0.0,58,0.00,SCT,SCT,0.00,204.0,WeatherDisplay:10.37,2014-01-01 20:20:00,
2014-01-01 15:25:00,41.8,27.7,30.32,SSE,148,0.0,4.0,57,0.00,SCT,SCT,0.00,216.0,WeatherDisplay:10.37,2014-01-01 20:25:00,
2014-01-01 15:30:00,41.6,27.9,30.33,SE,139,3.0,5.0,58,0.00,SCT,SCT,0.00,176.0,WeatherDisplay:10.37,2014-01-01 20:30:00,
2014-01-01 15:40:00,41.3,28.0,30.33,ESE,119,0.0,5.0,59,0.00,SCT,SCT,0.00,163.0,WeatherDisplay:10.37,2014-01-01 20:40:00,
2014-01-01 15:45:00,41.2,28.3,30.33,ESE,120,2.0,6.0,60,0.00,SCT,SCT,0.00,151.0,WeatherDisplay:10.37,2014-01-01 20:45:00,
2014-01-01 15:55:00,40.6,28.2,30.33,SSE,159,2.0,5.0,61,0.00,BKN,BKN,0.00,104.0,WeatherDisplay:10.37,2014-01-01 20:55:00,
2014-01-01 16:00:00,40.1,27.8,30.33,SSE,160,1.0,8.0,61,0.00,SCT,SCT,0.00,120.0,WeatherDisplay:10.37,2014-01-01 21:00:00,
2014-01-01 16:05:00,40.2,28.2,30.33,South,184,0.0,3.0,62,0.00,SCT,SCT,0.00,128.0,WeatherDisplay:10.37,2014-01-01 21:05:00,
2014-01-01 16:15:00,40.5,28.5,30.33,SSE,164,0.0,0.0,62,0.00,FEW,FEW,0.00,134.0,WeatherDisplay:10.37,2014-01-01 21:15:00,
2014-01-01 16:20:00,40.4,28.8,30.32,SSE,147,0.0,3.0,63,0.00,FEW,FEW,0.00,125.0,WeatherDisplay:10.37,2014-01-01 21:20:00,
2014-01-01 16:30:00,40.1,28.5,30.32,SE,135,1.0,4.0,63,0.00,BKN,BKN,0.00,69.0,WeatherDisplay:10.37,2014-01-01 21:30:00,
2014-01-01 16:35:00,39.8,28.2,30.31,SSE,151,0.0,3.0,63,0.00,SCT,SCT,0.00,69.0,WeatherDisplay:10.37,2014-01-01 21:35:00,
2014-01-01 16:40:00,39.7,28.5,30.31,SSE,161,0.0,3.0,64,0.00,BKN,BKN,0.00,58.0,WeatherDisplay:10.37,2014-01-01 21:40:00,
2014-01-01 16:50:00,39.3,28.5,30.31,ESE,108,0.0,1.0,65,0.00,SCT,SCT,0.00,51.0,WeatherDisplay:10.37,2014-01-01 21:50:00,
2014-01-01 16:55:00,39.1,28.3,30.31,ESE,118,0.0,1.0,65,0.00,BKN,BKN,0.00,40.0,WeatherDisplay:10.37,2014-01-01 21:55:00,
2014-01-01 17:00:00,39.0,28.6,30.31,SE,132,0.0,3.0,66,0.00,SCT,SCT,0.00,37.0,WeatherDisplay:10.37,2014-01-01 22:00:00,
2014-01-01 17:05:00,38.8,28.4,30.32,SSE,155,0.0,3.0,66,0.00,BKN,BKN,0.00,25.0,WeatherDisplay:10.37,2014-01-01 22:05:00,
2014-01-01 17:10:00,38.6,28.2,30.32,SSE,168,0.0,1.0,66,0.00,BKN,BKN,0.00,18.0,WeatherDisplay:10.37,2014-01-01 22:10:00,
2014-01-01 17:20:00,38.0,28.4,30.31,SSE,161,0.0,0.0,68,0.00,BKN,BKN,0.00,9.0,WeatherDisplay:10.37,2014-01-01 22:20:00,
2014-01-01 17:25:00,37.5,28.2,30.31,SSE,161,0.0,0.0,69,0.00,BKN,BKN,0.00,5.0,WeatherDisplay:10.37,2014-01-01 22:25:00,
2014-01-01 17:35:00,37.0,28.1,30.31,SSE,161,0.0,0.0,70,0.00,OVC,OVC,0.00,0.0,WeatherDisplay:10.37,2014-01-01 22:35:00,
2014-01-01 17:40:00,36.6,28.1,30.31,SSE,161,0.0,1.0,71,0.00,OVC,OVC,0.00,0.0,WeatherDisplay:10.37,2014-01-01 22:40:00,
2014-01-01 17:50:00,36.3,28.1,30.32,SSE,162,0.0,0.0,72,0.00,OVC,OVC,0.00,0.0,WeatherDisplay:10.37,2014-01-01 22:50:00,
2014-01-01 17:55:00,36.2,28.4,30.32,SSE,162,0.0,0.0,73,0.00,OVC,OVC,0.00,0.0,WeatherDisplay:10.37,2014-01-01 22:55:00,
2014-01-01 18:00:00,35.8,28.0,30.32,SSE,162,0.0,0.0,73,0.00,CLR,CLR,0.00,0.0,WeatherDisplay:10.37,2014-01-01 23:00:00,
2014-01-01 18:05:00,35.4,27.9,30.31,SSE,161,0.0,1.0,74,0.00,CLR,CLR,0.00,0.0,WeatherDisplay:10.37,2014-01-01 23:05:00,
2014-01-01 18:10:00,35.0,27.9,30.31,SSE,162,0.0,0.0,75,0.00,CLR,CLR,0.00,0.0,WeatherDisplay:10.37,2014-01-01 23:10:00,
2014-01-01 18:15:00,34.7,27.9,30.31,SSE,162,0.0,0.0,76,0.00,CLR,CLR,0.00,0.0,WeatherDisplay:10.37,2014-01-01 23:15:00,
2014-01-01 18:20:00,34.4,27.9,30.31,SSE,162,0.0,0.0,77,0.00,CLR,CLR,0.00,0.0,WeatherDisplay:10.37,2014-01-01 23:20:00,
2014-01-01 18:30:00,33.8,27.7,30.31,SSE,162,0.0,0.0,78,0.00,CLR,CLR,0.00,0.0,WeatherDisplay:10.37,2014-01-01 23:30:00,
2014-01-01 18:35:00,33.5,27.4,30.31,SSE,162,0.0,0.0,78,0.00,CLR,CLR,0.00,0.0,WeatherDisplay:10.37,2014-01-01 23:35:00,
2014-01-01 18:45:00,33.0,27.5,30.31,SSE,162,0.0,0.0,80,0.00,CLR,CLR,0.00,0.0,WeatherDisplay:10.37,2014-01-01 23:45:00,
2014-01-01 18:50:00,32.8,27.3,30.32,SSE,162,0.0,0.0,80,0.00,CLR,CLR,0.00,0.0,WeatherDisplay:10.37,2014-01-01 23:50:00,
2014-01-01 18:55:00,32.6,27.4,30.32,SSE,161,0.0,0.0,81,0.00,CLR,CLR,0.00,0.0,WeatherDisplay:10.37,2014-01-01 23:55:00,
2014-01-01 19:00:00,32.5,27.6,30.32,SSE,162,0.0,0.0,82,0.00,CLR,CLR,0.00,0.0,WeatherDisplay:10.37,2014-01-02 00:00:00,
2014-01-01 19:05:00,32.5,27.6,30.32,SSE,162,0.0,0.0,82,0.00,CLR,CLR,0.00,0.0,WeatherDisplay:10.37,2014-01-02 00:05:00,
2014-01-01 19:10:00,32.4,27.8,30.31,SSE,162,0.0,0.0,83,0.00,CLR,CLR,0.00,0.0,WeatherDisplay:10.37,2014-01-02 00:10:00,
2014-01-01 19:15:00,32.3,27.7,30.31,SSE,161,0.0,0.0,83,0.00,CLR,CLR,0.00,0.0,WeatherDisplay:10.37,2014-01-02 00:15:00,
2014-01-01 19:20:00,32.1,27.2,30.31,SSE,162,0.0,0.0,82,0.00,CLR,CLR,0.00,0.0,WeatherDisplay:10.37,2014-01-02 00:20:00,
2014-01-01 19:25:00,32.0,27.4,30.31,SSE,162,0.0,0.0,83,0.00,CLR,CLR,0.00,0.0,WeatherDisplay:10.37,2014-01-02 00:25:00,
2014-01-01 19:30:00,32.0,27.7,30.31,SSE,161,0.0,0.0,84,0.00,CLR,CLR,0.00,0.0,WeatherDisplay:10.37,2014-01-02 00:30:00,
2014-01-01 19:35:00,32.0,27.7,30.31,SSE,162,0.0,0.0,84,0.00,CLR,CLR,0.00,0.0,WeatherDisplay:10.37,2014-01-02 00:35:00,
2014-01-01 19:45:00,31.5,27.2,30.30,SSE,162,0.0,0.0,84,0.00,CLR,CLR,0.00,0.0,WeatherDisplay:10.37,2014-01-02 00:45:00,
2014-01-01 19:50:00,31.2,26.9,30.30,SSE,162,0.0,0.0,84,0.00,CLR,CLR,0.00,0.0,WeatherDisplay:10.37,2014-01-02 00:50:00,
2014-01-01 20:00:00,30.8,26.8,30.30,SSE,162,0.0,0.0,85,0.00,CLR,CLR,0.00,0.0,WeatherDisplay:10.37,2014-01-02 01:00:00,
2014-01-01 20:05:00,30.7,26.7,30.30,SSE,162,0.0,0.0,85,0.00,CLR,CLR,0.00,0.0,WeatherDisplay:10.37,2014-01-02 01:05:00,
2014-01-01 20:15:00,30.4,26.7,30.30,SSE,162,0.0,0.0,86,0.00,CLR,CLR,0.00,0.0,WeatherDisplay:10.37,2014-01-02 01:15:00,
2014-01-01 20:20:00,30.4,26.7,30.29,SSE,162,0.0,0.0,86,0.00,CLR,CLR,0.00,0.0,WeatherDisplay:10.37,2014-01-02 01:20:00,
2014-01-01 20:30:00,30.3,26.9,30.29,SSE,161,0.0,0.0,87,0.00,CLR,CLR,0.00,0.0,WeatherDisplay:10.37,2014-01-02 01:30:00,
2014-01-01 20:35:00,30.3,26.9,30.28,SSE,162,0.0,0.0,87,0.00,CLR,CLR,0.00,0.0,WeatherDisplay:10.37,2014-01-02 01:35:00,
2014-01-01 20:40:00,30.3,26.9,30.28,SSE,162,0.0,0.0,87,0.00,CLR,CLR,0.00,0.0,WeatherDisplay:10.37,2014-01-02 01:40:00,
2014-01-01 20:50:00,30.2,27.1,30.28,SSE,162,0.0,0.0,88,0.00,CLR,CLR,0.00,0.0,WeatherDisplay:10.37,2014-01-02 01:50:00,
2014-01-01 21:00:00,30.1,27.0,30.28,SSE,162,0.0,0.0,88,0.00,CLR,CLR,0.00,0.0,WeatherDisplay:10.37,2014-01-02 02:00:00,
2014-01-01 21:05:00,30.1,27.0,30.28,SSE,162,0.0,0.0,88,0.00,CLR,CLR,0.00,0.0,WeatherDisplay:10.37,2014-01-02 02:05:00,
2014-01-01 21:10:00,30.1,27.0,30.27,SSE,162,0.0,0.0,88,0.00,CLR,CLR,0.00,0.0,WeatherDisplay:10.37,2014-01-02 02:10:00,
2014-01-01 21:20:00,30.1,27.0,30.27,SSE,162,0.0,0.0,88,0.00,CLR,CLR,0.00,0.0,WeatherDisplay:10.37,2014-01-02 02:20:00,
2014-01-01 21:25:00,30.1,27.3,30.28,SSE,162,0.0,0.0,89,0.00,CLR,CLR,0.00,0.0,WeatherDisplay:10.37,2014-01-02 02:25:00,
2014-01-01 21:35:00,30.0,26.9,30.27,SSE,162,0.0,0.0,88,0.00,CLR,CLR,0.00,0.0,WeatherDisplay:10.37,2014-01-02 02:35:00,
2014-01-01 21:40:00,30.0,26.9,30.27,SSE,162,0.0,0.0,88,0.00,CLR,CLR,0.00,0.0,WeatherDisplay:10.37,2014-01-02 02:40:00,
2014-01-01 21:50:00,29.9,26.8,30.27,SSE,162,0.0,0.0,88,0.00,CLR,CLR,0.00,0.0,WeatherDisplay:10.37,2014-01-02 02:50:00,
2014-01-01 21:55:00,29.9,27.1,30.26,SSE,162,0.0,0.0,89,0.00,CLR,CLR,0.00,0.0,WeatherDisplay:10.37,2014-01-02 02:55:00,
2014-01-01 22:05:00,29.9,27.1,30.27,SSE,162,0.0,0.0,89,0.00,CLR,CLR,0.00,0.0,WeatherDisplay:10.37,2014-01-02 03:05:00,
2014-01-01 22:10:00,29.9,27.1,30.28,SSE,162,0.0,1.0,89,0.00,CLR,CLR,0.00,0.0,WeatherDisplay:10.37,2014-01-02 03:10:00,
2014-01-01 22:15:00,30.1,27.3,30.27,SSE,161,0.0,0.0,89,0.00,CLR,CLR,0.00,0.0,WeatherDisplay:10.37,2014-01-02 03:15:00,
2014-01-01 22:20:00,30.1,27.3,30.27,SSE,161,0.0,0.0,89,0.00,CLR,CLR,0.00,0.0,WeatherDisplay:10.37,2014-01-02 03:20:00,
2014-01-01 22:25:00,30.2,27.3,30.27,SSE,162,0.0,0.0,89,0.00,CLR,CLR,0.00,0.0,WeatherDisplay:10.37,2014-01-02 03:25:00,
2014-01-01 22:30:00,30.2,27.3,30.27,SSE,162,0.0,0.0,89,0.00,CLR,CLR,0.00,0.0,WeatherDisplay:10.37,2014-01-02 03:30:00,
2014-01-01 22:35:00,30.2,27.3,30.26,SSE,162,0.0,0.0,89,0.00,CLR,CLR,0.00,0.0,WeatherDisplay:10.37,2014-01-02 03:35:00,
2014-01-01 22:45:00,30.3,27.4,30.25,SSE,162,0.0,0.0,89,0.00,CLR,CLR,0.00,0.0,WeatherDisplay:10.37,2014-01-02 03:45:00,
2014-01-01 22:50:00,30.3,27.2,30.24,SSE,162,0.0,0.0,88,0.00,CLR,CLR,0.00,0.0,WeatherDisplay:10.37,2014-01-02 03:50:00,
2014-01-01 22:55:00,30.3,27.2,30.24,SSE,161,0.0,0.0,88,0.00,CLR,CLR,0.00,0.0,WeatherDisplay:10.37,2014-01-02 03:55:00,
2014-01-01 23:05:00,30.3,27.4,30.24,SSE,162,0.0,0.0,89,0.00,CLR,CLR,0.00,0.0,WeatherDisplay:10.37,2014-01-02 04:05:00,
2014-01-01 23:15:00,30.2,27.3,30.24,SSE,162,0.0,0.0,89,0.00,CLR,CLR,0.00,0.0,WeatherDisplay:10.37,2014-01-02 04:15:00,
2014-01-01 23:20:00,30.2,27.3,30.24,SSE,162,0.0,0.0,89,0.00,CLR,CLR,0.00,0.0,WeatherDisplay:10.37,2014-01-02 04:20:00,
2014-01-01 23:25:00,30.3,27.4,30.24,SSE,162,0.0,0.0,89,0.00,CLR,CLR,0.00,0.0,WeatherDisplay:10.37,2014-01-02 04:25:00,
2014-01-01 23:30:00,30.3,27.4,30.24,SSE,162,0.0,0.0,89,0.00,CLR,CLR,0.00,0.0,WeatherDisplay:10.37,2014-01-02 04:30:00,
2014-01-01 23:35:00,30.4,27.5,30.24,SSE,161,0.0,0.0,89,0.00,CLR,CLR,0.00,0.0,WeatherDisplay:10.37,2014-01-02 04:35:00,
2014-01-01 23:45:00,30.4,27.5,30.23,SSE,162,0.0,0.0,89,0.00,CLR,CLR,0.00,0.0,WeatherDisplay:10.37,2014-01-02 04:45:00,
2014-01-01 23:50:00,30.4,27.5,30.23,SSE,162,0.0,0.0,89,0.00,CLR,CLR,0.00,0.0,WeatherDisplay:10.37,2014-01-02 04:50:00,
2014-01-01 23:55:00,30.3,27.4,30.23,SSE,161,0.0,0.0,89,0.00,CLR,CLR,0.00,0.0,WeatherDisplay:10.37,2014-01-02 04:55:00,